sensor_id;sensor_type;location;lat;lon;timestamp;P1;durP1;ratioP1;P2;durP2;ratioP2
22603;SDS011;11469;49.024;8.246;2023-03-20T00:00:17;4.78;;;1.92;;
22603;SDS011;11469;49.024;8.246;2023-03-20T00:02:50;3.50;;;1.90;;
22603;SDS011;11469;49.024;8.246;2023-03-20T00:05:17;4.55;;;1.88;;
22603;SDS011;11469;49.024;8.246;2023-03-20T00:07:46;2.97;;;1.80;;
22603;SDS011;11469;49.024;8.246;2023-03-20T00:10:15;3.63;;;1.88;;
22603;SDS011;11469;49.024;8.246;2023-03-20T00:12:42;4.40;;;1.90;;
22603;SDS011;11469;49.024;8.246;2023-03-20T00:17:58;3.47;;;2.20;;
22603;SDS011;11469;49.024;8.246;2023-03-20T00:20:23;2.53;;;1.95;;
22603;SDS011;11469;49.024;8.246;2023-03-20T00:22:49;3.40;;;2.10;;
22603;SDS011;11469;49.024;8.246;2023-03-20T00:25:16;2.88;;;2.17;;
22603;SDS011;11469;49.024;8.246;2023-03-20T00:27:43;3.35;;;1.67;;
22603;SDS011;11469;49.024;8.246;2023-03-20T00:32:55;3.85;;;2.25;;
22603;SDS011;11469;49.024;8.246;2023-03-20T00:35:29;3.50;;;1.75;;
22603;SDS011;11469;49.024;8.246;2023-03-20T00:37:55;3.67;;;2.00;;
22603;SDS011;11469;49.024;8.246;2023-03-20T00:40:22;3.95;;;1.90;;
22603;SDS011;11469;49.024;8.246;2023-03-20T00:42:55;3.65;;;1.98;;
22603;SDS011;11469;49.024;8.246;2023-03-20T00:45:24;4.47;;;2.13;;
22603;SDS011;11469;49.024;8.246;2023-03-20T00:47:51;2.72;;;2.00;;
22603;SDS011;11469;49.024;8.246;2023-03-20T00:50:27;4.97;;;2.47;;
22603;SDS011;11469;49.024;8.246;2023-03-20T00:52:54;3.58;;;2.30;;
22603;SDS011;11469;49.024;8.246;2023-03-20T00:55:22;5.57;;;2.38;;
22603;SDS011;11469;49.024;8.246;2023-03-20T00:57:55;5.82;;;2.70;;
22603;SDS011;11469;49.024;8.246;2023-03-20T01:03:14;4.40;;;2.42;;
22603;SDS011;11469;49.024;8.246;2023-03-20T01:05:42;4.90;;;2.65;;
22603;SDS011;11469;49.024;8.246;2023-03-20T01:08:11;8.05;;;2.50;;
22603;SDS011;11469;49.024;8.246;2023-03-20T01:10:41;6.70;;;2.50;;
22603;SDS011;11469;49.024;8.246;2023-03-20T01:13:27;4.82;;;2.40;;
22603;SDS011;11469;49.024;8.246;2023-03-20T01:15:55;4.95;;;2.45;;
22603;SDS011;11469;49.024;8.246;2023-03-20T01:18:25;3.30;;;2.40;;
22603;SDS011;11469;49.024;8.246;2023-03-20T01:20:51;3.92;;;2.47;;
22603;SDS011;11469;49.024;8.246;2023-03-20T01:23:17;6.28;;;2.50;;
22603;SDS011;11469;49.024;8.246;2023-03-20T01:25:44;3.40;;;2.30;;
22603;SDS011;11469;49.024;8.246;2023-03-20T01:28:27;3.80;;;2.30;;
22603;SDS011;11469;49.024;8.246;2023-03-20T01:30:55;5.00;;;2.65;;
22603;SDS011;11469;49.024;8.246;2023-03-20T01:33:21;5.82;;;2.40;;
22603;SDS011;11469;49.024;8.246;2023-03-20T01:35:48;4.45;;;2.50;;
22603;SDS011;11469;49.024;8.246;2023-03-20T01:38:22;4.93;;;3.50;;
22603;SDS011;11469;49.024;8.246;2023-03-20T01:40:57;4.60;;;2.55;;
22603;SDS011;11469;49.024;8.246;2023-03-20T01:43:37;5.97;;;2.78;;
22603;SDS011;11469;49.024;8.246;2023-03-20T01:51:44;3.60;;;2.60;;
22603;SDS011;11469;49.024;8.246;2023-03-20T01:56:51;5.50;;;2.60;;
22603;SDS011;11469;49.024;8.246;2023-03-20T01:59:24;4.65;;;3.13;;
22603;SDS011;11469;49.024;8.246;2023-03-20T02:01:53;3.30;;;2.45;;
22603;SDS011;11469;49.024;8.246;2023-03-20T02:04:19;4.15;;;2.78;;
22603;SDS011;11469;49.024;8.246;2023-03-20T02:06:50;6.72;;;2.97;;
22603;SDS011;11469;49.024;8.246;2023-03-20T02:09:15;4.40;;;2.95;;
22603;SDS011;11469;49.024;8.246;2023-03-20T02:11:41;4.45;;;3.05;;
22603;SDS011;11469;49.024;8.246;2023-03-20T02:14:09;4.93;;;3.20;;
22603;SDS011;11469;49.024;8.246;2023-03-20T02:16:35;5.80;;;3.90;;
22603;SDS011;11469;49.024;8.246;2023-03-20T02:19:01;7.72;;;3.38;;
22603;SDS011;11469;49.024;8.246;2023-03-20T02:30:54;4.85;;;3.70;;
22603;SDS011;11469;49.024;8.246;2023-03-20T02:47:25;11.68;;;5.32;;
22603;SDS011;11469;49.024;8.246;2023-03-20T02:55:39;9.27;;;5.35;;
22603;SDS011;11469;49.024;8.246;2023-03-20T02:58:21;7.20;;;4.95;;
22603;SDS011;11469;49.024;8.246;2023-03-20T03:01:13;8.25;;;5.47;;
22603;SDS011;11469;49.024;8.246;2023-03-20T03:03:55;8.73;;;5.80;;
22603;SDS011;11469;49.024;8.246;2023-03-20T03:06:29;10.52;;;5.72;;
22603;SDS011;11469;49.024;8.246;2023-03-20T03:09:00;9.73;;;6.50;;
22603;SDS011;11469;49.024;8.246;2023-03-20T03:11:34;10.75;;;6.70;;
22603;SDS011;11469;49.024;8.246;2023-03-20T03:14:03;10.23;;;7.03;;
22603;SDS011;11469;49.024;8.246;2023-03-20T03:16:32;11.13;;;6.50;;
22603;SDS011;11469;49.024;8.246;2023-03-20T03:19:06;15.10;;;7.18;;
22603;SDS011;11469;49.024;8.246;2023-03-20T03:21:35;9.93;;;7.03;;
22603;SDS011;11469;49.024;8.246;2023-03-20T03:24:03;11.82;;;6.95;;
22603;SDS011;11469;49.024;8.246;2023-03-20T03:26:30;9.25;;;6.65;;
22603;SDS011;11469;49.024;8.246;2023-03-20T03:29:01;11.60;;;7.47;;
22603;SDS011;11469;49.024;8.246;2023-03-20T03:31:36;11.40;;;7.68;;
22603;SDS011;11469;49.024;8.246;2023-03-20T03:34:02;12.63;;;9.10;;
22603;SDS011;11469;49.024;8.246;2023-03-20T03:42:26;16.50;;;9.27;;
22603;SDS011;11469;49.024;8.246;2023-03-20T03:47:53;15.50;;;10.23;;
22603;SDS011;11469;49.024;8.246;2023-03-20T03:50:39;18.60;;;10.18;;
22603;SDS011;11469;49.024;8.246;2023-03-20T03:53:12;15.38;;;9.80;;
22603;SDS011;11469;49.024;8.246;2023-03-20T03:55:43;16.70;;;10.50;;
22603;SDS011;11469;49.024;8.246;2023-03-20T03:58:16;16.42;;;10.73;;
22603;SDS011;11469;49.024;8.246;2023-03-20T04:00:46;20.60;;;10.65;;
22603;SDS011;11469;49.024;8.246;2023-03-20T04:03:14;16.50;;;10.48;;
22603;SDS011;11469;49.024;8.246;2023-03-20T04:05:41;15.48;;;9.70;;
22603;SDS011;11469;49.024;8.246;2023-03-20T04:08:10;14.85;;;9.98;;
22603;SDS011;11469;49.024;8.246;2023-03-20T04:10:35;15.02;;;10.18;;
22603;SDS011;11469;49.024;8.246;2023-03-20T04:13:00;14.40;;;9.88;;
22603;SDS011;11469;49.024;8.246;2023-03-20T04:15:26;16.58;;;10.73;;
22603;SDS011;11469;49.024;8.246;2023-03-20T04:17:52;15.48;;;10.52;;
22603;SDS011;11469;49.024;8.246;2023-03-20T04:20:18;21.63;;;11.82;;
22603;SDS011;11469;49.024;8.246;2023-03-20T04:22:43;16.52;;;10.50;;
22603;SDS011;11469;49.024;8.246;2023-03-20T04:25:15;18.25;;;10.27;;
22603;SDS011;11469;49.024;8.246;2023-03-20T04:27:42;16.42;;;11.40;;
22603;SDS011;11469;49.024;8.246;2023-03-20T04:30:08;20.17;;;11.50;;
22603;SDS011;11469;49.024;8.246;2023-03-20T04:32:34;17.58;;;11.55;;
22603;SDS011;11469;49.024;8.246;2023-03-20T04:34:59;22.27;;;12.45;;
22603;SDS011;11469;49.024;8.246;2023-03-20T04:37:25;17.40;;;11.60;;
22603;SDS011;11469;49.024;8.246;2023-03-20T04:39:50;17.77;;;12.23;;
22603;SDS011;11469;49.024;8.246;2023-03-20T04:42:15;17.05;;;11.57;;
22603;SDS011;11469;49.024;8.246;2023-03-20T04:44:41;19.60;;;11.68;;
22603;SDS011;11469;49.024;8.246;2023-03-20T04:47:06;18.98;;;13.20;;
22603;SDS011;11469;49.024;8.246;2023-03-20T04:49:32;20.73;;;11.65;;
22603;SDS011;11469;49.024;8.246;2023-03-20T04:51:57;15.15;;;11.32;;
22603;SDS011;11469;49.024;8.246;2023-03-20T04:54:22;22.73;;;12.70;;
22603;SDS011;11469;49.024;8.246;2023-03-20T04:56:48;25.00;;;12.75;;
22603;SDS011;11469;49.024;8.246;2023-03-20T04:59:13;19.42;;;13.05;;
22603;SDS011;11469;49.024;8.246;2023-03-20T05:01:39;19.08;;;13.25;;
22603;SDS011;11469;49.024;8.246;2023-03-20T05:04:04;17.83;;;13.07;;
22603;SDS011;11469;49.024;8.246;2023-03-20T05:06:30;19.40;;;13.18;;
22603;SDS011;11469;49.024;8.246;2023-03-20T05:08:56;18.73;;;13.10;;
22603;SDS011;11469;49.024;8.246;2023-03-20T05:11:24;19.33;;;13.45;;
22603;SDS011;11469;49.024;8.246;2023-03-20T05:13:50;23.27;;;14.18;;
22603;SDS011;11469;49.024;8.246;2023-03-20T05:16:16;22.02;;;14.15;;
22603;SDS011;11469;49.024;8.246;2023-03-20T05:18:41;17.90;;;12.82;;
22603;SDS011;11469;49.024;8.246;2023-03-20T05:21:07;26.05;;;14.40;;
22603;SDS011;11469;49.024;8.246;2023-03-20T05:23:33;22.73;;;14.10;;
22603;SDS011;11469;49.024;8.246;2023-03-20T05:25:58;22.08;;;14.48;;
22603;SDS011;11469;49.024;8.246;2023-03-20T05:28:23;23.17;;;14.80;;
22603;SDS011;11469;49.024;8.246;2023-03-20T05:30:49;18.70;;;13.27;;
22603;SDS011;11469;49.024;8.246;2023-03-20T05:33:14;23.63;;;15.05;;
22603;SDS011;11469;49.024;8.246;2023-03-20T05:35:40;20.50;;;14.07;;
22603;SDS011;11469;49.024;8.246;2023-03-20T05:38:06;23.20;;;14.05;;
22603;SDS011;11469;49.024;8.246;2023-03-20T05:40:31;22.67;;;15.32;;
22603;SDS011;11469;49.024;8.246;2023-03-20T05:42:57;23.30;;;15.02;;
22603;SDS011;11469;49.024;8.246;2023-03-20T05:45:22;24.10;;;15.23;;
22603;SDS011;11469;49.024;8.246;2023-03-20T05:47:47;24.10;;;15.43;;
22603;SDS011;11469;49.024;8.246;2023-03-20T05:50:13;23.02;;;15.07;;
22603;SDS011;11469;49.024;8.246;2023-03-20T05:52:38;21.05;;;14.63;;
22603;SDS011;11469;49.024;8.246;2023-03-20T05:55:04;24.77;;;15.23;;
22603;SDS011;11469;49.024;8.246;2023-03-20T05:57:30;25.02;;;15.50;;
22603;SDS011;11469;49.024;8.246;2023-03-20T05:59:55;24.98;;;15.65;;
22603;SDS011;11469;49.024;8.246;2023-03-20T06:02:21;27.45;;;16.48;;
22603;SDS011;11469;49.024;8.246;2023-03-20T06:04:47;22.95;;;15.40;;
22603;SDS011;11469;49.024;8.246;2023-03-20T06:07:12;26.20;;;16.27;;
22603;SDS011;11469;49.024;8.246;2023-03-20T06:09:37;26.25;;;15.75;;
22603;SDS011;11469;49.024;8.246;2023-03-20T06:12:03;25.58;;;15.52;;
22603;SDS011;11469;49.024;8.246;2023-03-20T06:14:28;28.75;;;16.90;;
22603;SDS011;11469;49.024;8.246;2023-03-20T06:16:54;25.02;;;15.65;;
22603;SDS011;11469;49.024;8.246;2023-03-20T06:19:21;27.45;;;16.58;;
22603;SDS011;11469;49.024;8.246;2023-03-20T06:21:47;29.60;;;16.48;;
22603;SDS011;11469;49.024;8.246;2023-03-20T06:24:13;25.05;;;16.30;;
22603;SDS011;11469;49.024;8.246;2023-03-20T06:26:38;27.15;;;17.00;;
22603;SDS011;11469;49.024;8.246;2023-03-20T06:29:04;30.98;;;17.88;;
22603;SDS011;11469;49.024;8.246;2023-03-20T06:31:30;30.15;;;17.67;;
22603;SDS011;11469;49.024;8.246;2023-03-20T06:33:55;30.77;;;18.38;;
22603;SDS011;11469;49.024;8.246;2023-03-20T06:36:21;27.08;;;17.17;;
22603;SDS011;11469;49.024;8.246;2023-03-20T06:38:47;31.17;;;17.45;;
22603;SDS011;11469;49.024;8.246;2023-03-20T06:41:12;28.58;;;17.27;;
22603;SDS011;11469;49.024;8.246;2023-03-20T06:43:38;32.47;;;18.20;;
22603;SDS011;11469;49.024;8.246;2023-03-20T06:46:04;42.20;;;18.70;;
22603;SDS011;11469;49.024;8.246;2023-03-20T06:48:30;28.70;;;18.30;;
22603;SDS011;11469;49.024;8.246;2023-03-20T06:50:57;31.13;;;18.63;;
22603;SDS011;11469;49.024;8.246;2023-03-20T06:53:22;30.17;;;18.20;;
22603;SDS011;11469;49.024;8.246;2023-03-20T06:55:49;30.50;;;18.33;;
22603;SDS011;11469;49.024;8.246;2023-03-20T06:58:15;31.90;;;18.75;;
22603;SDS011;11469;49.024;8.246;2023-03-20T07:00:41;32.00;;;17.75;;
22603;SDS011;11469;49.024;8.246;2023-03-20T07:03:07;31.48;;;18.65;;
22603;SDS011;11469;49.024;8.246;2023-03-20T07:05:33;32.95;;;18.17;;
22603;SDS011;11469;49.024;8.246;2023-03-20T07:07:58;35.08;;;19.02;;
22603;SDS011;11469;49.024;8.246;2023-03-20T07:10:24;30.00;;;19.13;;
22603;SDS011;11469;49.024;8.246;2023-03-20T07:12:50;35.33;;;18.50;;
22603;SDS011;11469;49.024;8.246;2023-03-20T07:15:16;27.63;;;17.83;;
22603;SDS011;11469;49.024;8.246;2023-03-20T07:17:42;26.98;;;17.65;;
22603;SDS011;11469;49.024;8.246;2023-03-20T07:20:07;26.55;;;16.95;;
22603;SDS011;11469;49.024;8.246;2023-03-20T07:22:34;29.08;;;17.98;;
22603;SDS011;11469;49.024;8.246;2023-03-20T07:25:00;27.80;;;18.00;;
22603;SDS011;11469;49.024;8.246;2023-03-20T07:27:26;30.30;;;17.75;;
22603;SDS011;11469;49.024;8.246;2023-03-20T07:29:51;30.95;;;18.27;;
22603;SDS011;11469;49.024;8.246;2023-03-20T07:32:17;26.23;;;16.23;;
22603;SDS011;11469;49.024;8.246;2023-03-20T07:34:42;28.80;;;17.40;;
22603;SDS011;11469;49.024;8.246;2023-03-20T07:37:08;29.30;;;16.70;;
22603;SDS011;11469;49.024;8.246;2023-03-20T07:39:34;28.35;;;16.77;;
22603;SDS011;11469;49.024;8.246;2023-03-20T07:42:00;27.38;;;16.42;;
22603;SDS011;11469;49.024;8.246;2023-03-20T07:44:25;28.10;;;16.65;;
22603;SDS011;11469;49.024;8.246;2023-03-20T07:46:50;25.23;;;15.77;;
22603;SDS011;11469;49.024;8.246;2023-03-20T07:49:16;26.48;;;15.35;;
22603;SDS011;11469;49.024;8.246;2023-03-20T07:51:42;24.13;;;14.85;;
22603;SDS011;11469;49.024;8.246;2023-03-20T07:54:08;23.75;;;14.25;;
22603;SDS011;11469;49.024;8.246;2023-03-20T07:56:34;25.88;;;14.23;;
22603;SDS011;11469;49.024;8.246;2023-03-20T07:58:59;23.05;;;13.85;;
22603;SDS011;11469;49.024;8.246;2023-03-20T08:01:25;22.55;;;14.23;;
22603;SDS011;11469;49.024;8.246;2023-03-20T08:03:50;22.20;;;13.95;;
22603;SDS011;11469;49.024;8.246;2023-03-20T08:06:15;25.65;;;14.57;;
22603;SDS011;11469;49.024;8.246;2023-03-20T08:08:41;22.92;;;13.75;;
22603;SDS011;11469;49.024;8.246;2023-03-20T08:11:07;21.38;;;14.82;;
22603;SDS011;11469;49.024;8.246;2023-03-20T08:13:32;21.45;;;14.30;;
22603;SDS011;11469;49.024;8.246;2023-03-20T08:15:58;24.13;;;14.65;;
22603;SDS011;11469;49.024;8.246;2023-03-20T08:18:23;21.77;;;13.95;;
22603;SDS011;11469;49.024;8.246;2023-03-20T08:20:49;29.85;;;14.23;;
22603;SDS011;11469;49.024;8.246;2023-03-20T08:23:17;22.48;;;13.65;;
22603;SDS011;11469;49.024;8.246;2023-03-20T08:25:50;25.75;;;14.10;;
22603;SDS011;11469;49.024;8.246;2023-03-20T08:28:16;21.33;;;14.30;;
22603;SDS011;11469;49.024;8.246;2023-03-20T08:30:42;19.00;;;12.88;;
22603;SDS011;11469;49.024;8.246;2023-03-20T08:33:08;22.17;;;13.45;;
22603;SDS011;11469;49.024;8.246;2023-03-20T08:35:34;19.33;;;12.68;;
22603;SDS011;11469;49.024;8.246;2023-03-20T08:38:00;24.30;;;13.48;;
22603;SDS011;11469;49.024;8.246;2023-03-20T08:40:28;18.75;;;11.93;;
22603;SDS011;11469;49.024;8.246;2023-03-20T08:42:54;17.55;;;11.68;;
22603;SDS011;11469;49.024;8.246;2023-03-20T08:45:19;19.40;;;11.68;;
22603;SDS011;11469;49.024;8.246;2023-03-20T08:47:48;18.20;;;11.20;;
22603;SDS011;11469;49.024;8.246;2023-03-20T08:50:13;18.48;;;10.38;;
22603;SDS011;11469;49.024;8.246;2023-03-20T08:52:38;15.38;;;10.40;;
22603;SDS011;11469;49.024;8.246;2023-03-20T08:55:08;20.90;;;10.70;;
22603;SDS011;11469;49.024;8.246;2023-03-20T08:57:35;17.38;;;10.73;;
22603;SDS011;11469;49.024;8.246;2023-03-20T09:00:02;16.25;;;9.68;;
22603;SDS011;11469;49.024;8.246;2023-03-20T09:02:28;17.48;;;10.80;;
22603;SDS011;11469;49.024;8.246;2023-03-20T09:04:53;21.25;;;10.95;;
22603;SDS011;11469;49.024;8.246;2023-03-20T09:07:19;19.73;;;10.25;;
22603;SDS011;11469;49.024;8.246;2023-03-20T09:09:46;16.33;;;10.02;;
22603;SDS011;11469;49.024;8.246;2023-03-20T09:12:11;16.15;;;9.15;;
22603;SDS011;11469;49.024;8.246;2023-03-20T09:14:36;15.60;;;9.75;;
22603;SDS011;11469;49.024;8.246;2023-03-20T09:17:02;19.73;;;11.77;;
22603;SDS011;11469;49.024;8.246;2023-03-20T09:19:28;14.63;;;9.18;;
22603;SDS011;11469;49.024;8.246;2023-03-20T09:21:53;20.23;;;9.45;;
22603;SDS011;11469;49.024;8.246;2023-03-20T09:24:18;13.85;;;9.13;;
22603;SDS011;11469;49.024;8.246;2023-03-20T09:26:44;13.48;;;8.60;;
22603;SDS011;11469;49.024;8.246;2023-03-20T09:29:09;15.65;;;8.95;;
22603;SDS011;11469;49.024;8.246;2023-03-20T09:31:35;12.85;;;8.77;;
22603;SDS011;11469;49.024;8.246;2023-03-20T09:34:00;18.38;;;10.77;;
22603;SDS011;11469;49.024;8.246;2023-03-20T09:36:25;20.10;;;9.30;;
22603;SDS011;11469;49.024;8.246;2023-03-20T09:38:51;12.93;;;8.15;;
22603;SDS011;11469;49.024;8.246;2023-03-20T09:41:18;12.98;;;7.78;;
22603;SDS011;11469;49.024;8.246;2023-03-20T09:46:52;15.98;;;8.30;;
22603;SDS011;11469;49.024;8.246;2023-03-20T09:51:59;13.43;;;8.02;;
22603;SDS011;11469;49.024;8.246;2023-03-20T09:54:42;10.75;;;6.75;;
22603;SDS011;11469;49.024;8.246;2023-03-20T09:57:16;11.38;;;6.78;;
22603;SDS011;11469;49.024;8.246;2023-03-20T09:59:45;13.98;;;6.40;;
22603;SDS011;11469;49.024;8.246;2023-03-20T10:02:18;11.25;;;6.45;;
22603;SDS011;11469;49.024;8.246;2023-03-20T10:04:52;10.57;;;6.40;;
22603;SDS011;11469;49.024;8.246;2023-03-20T10:07:19;13.32;;;7.32;;
22603;SDS011;11469;49.024;8.246;2023-03-20T10:09:45;10.38;;;6.82;;
22603;SDS011;11469;49.024;8.246;2023-03-20T10:20:10;12.25;;;6.88;;
22603;SDS011;11469;49.024;8.246;2023-03-20T10:22:38;10.60;;;6.93;;
22603;SDS011;11469;49.024;8.246;2023-03-20T10:30:32;10.35;;;6.07;;
22603;SDS011;11469;49.024;8.246;2023-03-20T10:33:14;10.82;;;6.60;;
22603;SDS011;11469;49.024;8.246;2023-03-20T10:36:37;9.52;;;5.75;;
22603;SDS011;11469;49.024;8.246;2023-03-20T10:41:46;11.00;;;6.18;;
22603;SDS011;11469;49.024;8.246;2023-03-20T10:44:24;9.30;;;5.88;;
22603;SDS011;11469;49.024;8.246;2023-03-20T10:47:00;8.77;;;4.72;;
22603;SDS011;11469;49.024;8.246;2023-03-20T10:49:41;8.65;;;4.95;;
22603;SDS011;11469;49.024;8.246;2023-03-20T10:52:12;8.23;;;4.47;;
22603;SDS011;11469;49.024;8.246;2023-03-20T10:54:45;9.73;;;4.82;;
22603;SDS011;11469;49.024;8.246;2023-03-20T10:57:16;6.78;;;4.07;;
22603;SDS011;11469;49.024;8.246;2023-03-20T10:59:47;5.45;;;3.78;;
22603;SDS011;11469;49.024;8.246;2023-03-20T11:02:15;11.30;;;4.18;;
22603;SDS011;11469;49.024;8.246;2023-03-20T11:04:43;7.32;;;3.70;;
22603;SDS011;11469;49.024;8.246;2023-03-20T11:12:31;6.00;;;3.08;;
22603;SDS011;11469;49.024;8.246;2023-03-20T11:15:21;4.63;;;3.10;;
22603;SDS011;11469;49.024;8.246;2023-03-20T11:17:55;6.07;;;2.92;;
22603;SDS011;11469;49.024;8.246;2023-03-20T11:20:38;4.38;;;3.25;;
22603;SDS011;11469;49.024;8.246;2023-03-20T11:23:10;6.20;;;3.35;;
22603;SDS011;11469;49.024;8.246;2023-03-20T11:28:25;6.35;;;3.50;;
22603;SDS011;11469;49.024;8.246;2023-03-20T11:31:05;7.32;;;3.88;;
22603;SDS011;11469;49.024;8.246;2023-03-20T11:33:42;12.68;;;4.50;;
22603;SDS011;11469;49.024;8.246;2023-03-20T11:36:11;11.68;;;4.18;;
22603;SDS011;11469;49.024;8.246;2023-03-20T11:38:45;6.20;;;3.58;;
22603;SDS011;11469;49.024;8.246;2023-03-20T11:41:32;7.43;;;3.30;;
22603;SDS011;11469;49.024;8.246;2023-03-20T11:43:57;9.02;;;3.72;;
22603;SDS011;11469;49.024;8.246;2023-03-20T11:46:23;7.18;;;3.30;;
22603;SDS011;11469;49.024;8.246;2023-03-20T11:49:06;5.47;;;3.55;;
22603;SDS011;11469;49.024;8.246;2023-03-20T11:51:44;5.95;;;3.08;;
22603;SDS011;11469;49.024;8.246;2023-03-20T11:54:14;6.40;;;3.00;;
22603;SDS011;11469;49.024;8.246;2023-03-20T11:56:52;8.00;;;3.58;;
22603;SDS011;11469;49.024;8.246;2023-03-20T11:59:28;6.75;;;3.88;;
22603;SDS011;11469;49.024;8.246;2023-03-20T12:01:57;5.03;;;3.40;;
22603;SDS011;11469;49.024;8.246;2023-03-20T12:09:54;9.43;;;4.18;;
22603;SDS011;11469;49.024;8.246;2023-03-20T12:12:26;8.05;;;3.83;;
22603;SDS011;11469;49.024;8.246;2023-03-20T12:21:11;7.03;;;4.60;;
22603;SDS011;11469;49.024;8.246;2023-03-20T12:24:12;7.65;;;3.80;;
22603;SDS011;11469;49.024;8.246;2023-03-20T12:26:50;8.32;;;4.63;;
22603;SDS011;11469;49.024;8.246;2023-03-20T12:37:45;9.63;;;3.35;;
22603;SDS011;11469;49.024;8.246;2023-03-20T12:40:11;7.70;;;3.17;;
22603;SDS011;11469;49.024;8.246;2023-03-20T12:50:16;4.65;;;2.15;;
22603;SDS011;11469;49.024;8.246;2023-03-20T13:03:31;4.88;;;2.45;;
22603;SDS011;11469;49.024;8.246;2023-03-20T13:14:22;7.05;;;3.33;;
22603;SDS011;11469;49.024;8.246;2023-03-20T13:17:10;8.95;;;2.88;;
22603;SDS011;11469;49.024;8.246;2023-03-20T13:22:41;6.28;;;2.90;;
22603;SDS011;11469;49.024;8.246;2023-03-20T13:34:35;24.88;;;3.55;;
22603;SDS011;11469;49.024;8.246;2023-03-20T13:39:13;7.32;;;2.75;;
22603;SDS011;11469;49.024;8.246;2023-03-20T13:41:45;5.70;;;3.38;;
22603;SDS011;11469;49.024;8.246;2023-03-20T13:44:12;5.35;;;3.10;;
22603;SDS011;11469;49.024;8.246;2023-03-20T13:46:53;8.65;;;3.63;;
22603;SDS011;11469;49.024;8.246;2023-03-20T13:49:24;8.45;;;3.20;;
22603;SDS011;11469;49.024;8.246;2023-03-20T13:51:56;5.88;;;3.40;;
22603;SDS011;11469;49.024;8.246;2023-03-20T13:54:36;8.70;;;2.60;;
22603;SDS011;11469;49.024;8.246;2023-03-20T13:57:15;4.10;;;2.00;;
22603;SDS011;11469;49.024;8.246;2023-03-20T14:05:36;4.95;;;2.85;;
22603;SDS011;11469;49.024;8.246;2023-03-20T14:10:47;6.10;;;2.75;;
22603;SDS011;11469;49.024;8.246;2023-03-20T14:13:18;6.53;;;2.80;;
22603;SDS011;11469;49.024;8.246;2023-03-20T14:15:46;3.70;;;2.30;;
22603;SDS011;11469;49.024;8.246;2023-03-20T14:18:16;6.68;;;2.80;;
22603;SDS011;11469;49.024;8.246;2023-03-20T14:20:43;6.22;;;2.75;;
22603;SDS011;11469;49.024;8.246;2023-03-20T14:23:18;5.95;;;2.90;;
22603;SDS011;11469;49.024;8.246;2023-03-20T14:25:52;7.40;;;2.33;;
22603;SDS011;11469;49.024;8.246;2023-03-20T14:30:48;6.35;;;2.35;;
22603;SDS011;11469;49.024;8.246;2023-03-20T14:35:50;6.93;;;2.40;;
22603;SDS011;11469;49.024;8.246;2023-03-20T14:38:50;4.45;;;2.20;;
22603;SDS011;11469;49.024;8.246;2023-03-20T14:41:23;5.75;;;2.50;;
22603;SDS011;11469;49.024;8.246;2023-03-20T14:52:32;6.03;;;2.15;;
22603;SDS011;11469;49.024;8.246;2023-03-20T14:57:46;5.63;;;2.63;;
22603;SDS011;11469;49.024;8.246;2023-03-20T15:03:08;5.50;;;2.20;;
22603;SDS011;11469;49.024;8.246;2023-03-20T15:05:34;5.95;;;1.70;;
22603;SDS011;11469;49.024;8.246;2023-03-20T15:08:09;5.57;;;2.47;;
22603;SDS011;11469;49.024;8.246;2023-03-20T15:10:43;4.15;;;1.98;;
22603;SDS011;11469;49.024;8.246;2023-03-20T15:13:11;4.28;;;1.67;;
22603;SDS011;11469;49.024;8.246;2023-03-20T15:15:38;4.95;;;2.35;;
22603;SDS011;11469;49.024;8.246;2023-03-20T15:18:20;4.75;;;1.83;;
22603;SDS011;11469;49.024;8.246;2023-03-20T15:20:47;4.60;;;2.40;;
22603;SDS011;11469;49.024;8.246;2023-03-20T15:23:13;5.68;;;2.13;;
22603;SDS011;11469;49.024;8.246;2023-03-20T15:25:39;5.07;;;2.10;;
22603;SDS011;11469;49.024;8.246;2023-03-20T15:28:10;5.38;;;2.17;;
22603;SDS011;11469;49.024;8.246;2023-03-20T15:30:39;6.55;;;2.45;;
22603;SDS011;11469;49.024;8.246;2023-03-20T15:33:05;4.15;;;2.40;;
22603;SDS011;11469;49.024;8.246;2023-03-20T15:35:32;4.82;;;2.10;;
22603;SDS011;11469;49.024;8.246;2023-03-20T15:38:02;3.58;;;2.58;;
22603;SDS011;11469;49.024;8.246;2023-03-20T15:40:31;6.60;;;3.05;;
22603;SDS011;11469;49.024;8.246;2023-03-20T15:42:59;11.20;;;2.75;;
22603;SDS011;11469;49.024;8.246;2023-03-20T15:45:33;5.38;;;2.28;;
22603;SDS011;11469;49.024;8.246;2023-03-20T15:48:06;6.75;;;2.92;;
22603;SDS011;11469;49.024;8.246;2023-03-20T15:50:34;7.23;;;2.87;;
22603;SDS011;11469;49.024;8.246;2023-03-20T15:53:02;8.05;;;3.83;;
22603;SDS011;11469;49.024;8.246;2023-03-20T15:55:30;6.10;;;2.55;;
22603;SDS011;11469;49.024;8.246;2023-03-20T15:57:56;6.70;;;2.20;;
22603;SDS011;11469;49.024;8.246;2023-03-20T16:00:30;8.00;;;3.00;;
22603;SDS011;11469;49.024;8.246;2023-03-20T16:02:58;3.58;;;2.53;;
22603;SDS011;11469;49.024;8.246;2023-03-20T16:05:26;5.30;;;2.45;;
22603;SDS011;11469;49.024;8.246;2023-03-20T16:07:53;5.82;;;2.92;;
22603;SDS011;11469;49.024;8.246;2023-03-20T16:10:29;7.68;;;2.85;;
22603;SDS011;11469;49.024;8.246;2023-03-20T16:12:58;10.38;;;2.33;;
22603;SDS011;11469;49.024;8.246;2023-03-20T16:15:25;6.15;;;2.58;;
22603;SDS011;11469;49.024;8.246;2023-03-20T16:17:56;12.65;;;2.70;;
22603;SDS011;11469;49.024;8.246;2023-03-20T16:20:24;5.60;;;2.20;;
22603;SDS011;11469;49.024;8.246;2023-03-20T16:22:55;6.50;;;2.60;;
22603;SDS011;11469;49.024;8.246;2023-03-20T16:25:26;5.30;;;2.22;;
22603;SDS011;11469;49.024;8.246;2023-03-20T16:27:51;5.97;;;2.20;;
22603;SDS011;11469;49.024;8.246;2023-03-20T16:30:18;4.57;;;2.17;;
22603;SDS011;11469;49.024;8.246;2023-03-20T16:32:48;5.82;;;2.13;;
22603;SDS011;11469;49.024;8.246;2023-03-20T16:35:42;10.73;;;3.15;;
22603;SDS011;11469;49.024;8.246;2023-03-20T16:40:54;15.30;;;3.28;;
22603;SDS011;11469;49.024;8.246;2023-03-20T16:43:37;12.23;;;3.05;;
22603;SDS011;11469;49.024;8.246;2023-03-20T16:46:03;9.40;;;2.42;;
22603;SDS011;11469;49.024;8.246;2023-03-20T16:48:31;8.27;;;3.55;;
22603;SDS011;11469;49.024;8.246;2023-03-20T16:51:43;7.32;;;3.45;;
22603;SDS011;11469;49.024;8.246;2023-03-20T16:53:49;6.82;;;2.70;;
22603;SDS011;11469;49.024;8.246;2023-03-20T16:56:26;5.50;;;3.00;;
22603;SDS011;11469;49.024;8.246;2023-03-20T16:58:57;8.50;;;2.85;;
22603;SDS011;11469;49.024;8.246;2023-03-20T17:01:23;9.70;;;3.22;;
22603;SDS011;11469;49.024;8.246;2023-03-20T17:03:52;11.32;;;3.58;;
22603;SDS011;11469;49.024;8.246;2023-03-20T17:08:54;6.93;;;3.08;;
22603;SDS011;11469;49.024;8.246;2023-03-20T17:11:31;6.72;;;2.67;;
22603;SDS011;11469;49.024;8.246;2023-03-20T17:13:59;7.15;;;3.05;;
22603;SDS011;11469;49.024;8.246;2023-03-20T17:16:25;5.45;;;2.60;;
22603;SDS011;11469;49.024;8.246;2023-03-20T17:19:04;9.00;;;3.25;;
22603;SDS011;11469;49.024;8.246;2023-03-20T17:21:31;5.90;;;2.85;;
22603;SDS011;11469;49.024;8.246;2023-03-20T17:23:57;8.95;;;3.47;;
22603;SDS011;11469;49.024;8.246;2023-03-20T17:26:23;5.65;;;2.50;;
22603;SDS011;11469;49.024;8.246;2023-03-20T17:28:49;5.28;;;2.50;;
22603;SDS011;11469;49.024;8.246;2023-03-20T17:31:15;3.85;;;2.10;;
22603;SDS011;11469;49.024;8.246;2023-03-20T17:33:42;7.18;;;2.67;;
22603;SDS011;11469;49.024;8.246;2023-03-20T17:39:00;5.78;;;2.67;;
22603;SDS011;11469;49.024;8.246;2023-03-20T17:41:26;8.75;;;3.03;;
22603;SDS011;11469;49.024;8.246;2023-03-20T17:43:52;5.63;;;2.47;;
22603;SDS011;11469;49.024;8.246;2023-03-20T17:46:19;7.80;;;1.98;;
22603;SDS011;11469;49.024;8.246;2023-03-20T17:49:04;5.30;;;2.42;;